< < Back
Terminal Aerodrome Forecast


Current Version              Previous Versions:   1  2  3  4  5  6  7  8  9  

Terminal Aerodrome Forecast

284
FTUS44 KBMX 011100 RRA
TAFBHM
TAF
KBHM 011146Z 0112/0212 12005KT 6SM BR OVC010
     FM011300 14005KT 6SM BR OVC007
     FM011800 14004KT 6SM BR OVC010
     FM020500 14003KT 6SM BR OVC007=



Latest METAR

521
SAUS70 KWBC 020500 RRF
MTRBHM
METAR KBHM 020453Z 04004KT 10SM SCT025 OVC100 12/11 A3034 RMK AO2 SLP271
T01220106


USA.gov is the U.S. government's official web portal to all federal, state and local government web resources and services.